METAR Data
IDs: Format: Raw Decoded Include TAF

Data at: 1505 UTC 26 Sep 2021

KSET 261454Z AUTO 20010KT 10SM CLR 21/09 A3008 RMK AO2 SLP184 T02060094 51004 TSNO
No TAF found for KSET

KSTL 261451Z 21011G16KT 10SM FEW250 22/09 A3009 RMK AO2 SLP184 T02170094 51007

KSTL 261437Z 2615/2718 19009KT P6SM SKC
  FM261700 19010G18KT P6SM SKC
  FM262300 18009KT P6SM SKC
  FM270900 20008KT P6SM SKC WS020/23045KT
  FM271300 22010G20KT P6SM FEW200